Time;durP1;ratioP1;P1;durP2;ratioP2;P2;SDS_P1;SDS_P2;PMS_P1;PMS_P2;Temp;Humidity;BMP_temperature;BMP_pressure;BME280_temperature;BME280_humidity;BME280_pressure;Samples;Min_cycle;Max_cycle;Signal;HPM_P1;HPM_P2
2022/11/12 00:00:59;;;;;;;32.50;10.57;;;12.10;79.90;;;;;;4165527;28;20068;-83
2022/11/12 00:03:18;;;;;;;29.65;10.82;;;12.10;79.90;;;;;;4163267;28;20044;-83
2022/11/12 00:05:38;;;;;;;30.45;11.30;;;12.00;79.90;;;;;;4163670;28;20126;-83
2022/11/12 00:07:57;;;;;;;31.80;12.40;;;12.00;79.90;;;;;;4170328;28;20044;-84
2022/11/12 00:10:17;;;;;;;36.75;12.32;;;12.00;79.90;;;;;;4165372;28;20043;-83
2022/11/12 00:12:36;;;;;;;38.65;12.23;;;12.00;79.90;;;;;;4170451;28;20087;-83
2022/11/12 00:14:55;;;;;;;33.33;13.10;;;12.10;79.90;;;;;;4163345;28;20068;-83
2022/11/12 00:17:14;;;;;;;39.83;12.85;;;12.10;79.90;;;;;;4166141;28;20550;-84
2022/11/12 00:19:34;;;;;;;34.30;13.20;;;12.10;79.80;;;;;;4163388;28;20060;-84
2022/11/12 00:21:53;;;;;;;28.42;11.90;;;12.00;79.80;;;;;;4164626;28;20548;-83
2022/11/12 00:24:12;;;;;;;37.13;12.93;;;12.10;79.80;;;;;;4168608;28;20060;-84
2022/11/12 00:26:31;;;;;;;39.10;13.77;;;12.00;79.80;;;;;;4162893;28;20056;-83
2022/11/12 00:28:50;;;;;;;36.63;12.48;;;12.00;79.70;;;;;;4163543;28;20121;-84
2022/11/12 00:31:10;;;;;;;35.22;12.65;;;12.00;79.80;;;;;;4164178;28;20053;-82
2022/11/12 00:33:29;;;;;;;38.67;12.88;;;12.10;79.80;;;;;;4165324;28;20044;-83
2022/11/12 00:35:49;;;;;;;33.75;12.73;;;12.10;80.60;;;;;;4173640;28;20480;-84
2022/11/12 00:38:08;;;;;;;37.67;13.13;;;12.00;79.70;;;;;;4160637;28;20084;-84
2022/11/12 00:40:28;;;;;;;35.20;13.70;;;12.00;79.70;;;;;;4165373;28;20036;-84
2022/11/12 00:42:51;;;;;;;46.10;14.43;;;12.00;79.70;;;;;;4162384;28;20036;-83
2022/11/12 00:45:10;;;;;;;38.53;14.65;;;12.10;79.80;;;;;;4166726;28;20048;-83
2022/11/12 00:47:29;;;;;;;31.92;14.00;;;12.00;79.70;;;;;;4164243;28;20040;-83
2022/11/12 00:49:48;;;;;;;32.88;13.85;;;12.10;79.70;;;;;;4163474;28;20096;-84
2022/11/12 00:52:07;;;;;;;36.42;14.40;;;12.10;79.70;;;;;;4162793;28;20407;-85
2022/11/12 00:54:26;;;;;;;38.63;15.38;;;12.10;79.80;;;;;;4161794;28;20040;-83
2022/11/12 00:56:46;;;;;;;41.05;15.05;;;12.00;79.60;;;;;;4161186;28;20039;-83
2022/11/12 00:59:06;;;;;;;36.80;14.70;;;12.10;79.70;;;;;;4160742;28;20040;-83
2022/11/12 01:01:25;;;;;;;37.45;13.43;;;12.00;79.70;;;;;;4162539;28;20548;-84
2022/11/12 01:03:45;;;;;;;41.58;15.60;;;12.10;79.70;;;;;;4163180;28;20045;-84
2022/11/12 01:06:07;;;;;;;39.40;14.10;;;12.00;79.70;;;;;;4159602;28;20502;-84
2022/11/12 01:08:29;;;;;;;40.95;14.27;;;12.00;79.70;;;;;;4164140;28;20048;-83
2022/11/12 01:10:48;;;;;;;38.90;13.95;;;12.10;79.80;;;;;;4160071;28;20056;-83
2022/11/12 01:13:07;;;;;;;37.92;14.85;;;12.00;79.70;;;;;;4160954;28;20041;-83
2022/11/12 01:15:26;;;;;;;37.00;14.75;;;12.20;79.80;;;;;;4162666;28;20084;-83
2022/11/12 01:17:45;;;;;;;37.72;15.30;;;12.00;79.70;;;;;;4161830;28;20057;-84
2022/11/12 01:20:05;;;;;;;40.08;13.93;;;12.10;79.70;;;;;;4163295;28;20045;-83
2022/11/12 01:22:24;;;;;;;37.90;14.98;;;12.00;79.60;;;;;;4162654;28;20065;-83
2022/11/12 01:24:43;;;;;;;47.67;15.75;;;12.10;79.70;;;;;;4160217;28;20091;-84
2022/11/12 01:27:02;;;;;;;47.38;15.68;;;12.10;79.80;;;;;;4155378;28;20130;-83
2022/11/12 01:29:22;;;;;;;36.15;13.27;;;12.10;79.70;;;;;;4163117;28;20044;-84
2022/11/12 01:31:41;;;;;;;41.47;14.40;;;12.00;79.70;;;;;;4157790;28;20044;-83
2022/11/12 01:34:02;;;;;;;46.00;15.50;;;12.20;79.80;;;;;;4162785;28;20140;-83
2022/11/12 01:36:22;;;;;;;37.58;13.77;;;12.20;79.80;;;;;;4155746;28;20526;-83
2022/11/12 01:38:43;;;;;;;43.30;13.50;;;12.10;79.70;;;;;;4159127;28;20036;-83
2022/11/12 01:41:06;;;;;;;37.47;16.55;;;12.00;80.40;;;;;;4158718;28;20101;-83
2022/11/12 01:43:25;;;;;;;41.67;15.05;;;12.00;79.60;;;;;;4160749;28;20052;-83
2022/11/12 01:45:49;;;;;;;34.78;14.60;;;12.10;79.70;;;;;;4160221;28;20088;-83
2022/11/12 01:48:32;;;;;;;37.17;14.52;;;12.10;79.80;;;;;;4160591;28;20036;-84
2022/11/12 01:50:52;;;;;;;43.97;15.38;;;12.00;79.80;;;;;;4164658;28;20040;-83
2022/11/12 01:53:13;;;;;;;36.00;15.00;;;12.00;79.80;;;;;;4164699;28;20075;-83
2022/11/12 01:55:36;;;;;;;37.95;13.50;;;12.20;79.90;;;;;;4160132;28;20048;-82
2022/11/12 01:58:05;;;;;;;33.08;13.35;;;12.20;79.90;;;;;;4164986;28;20040;-84
2022/11/12 02:00:24;;;;;;;51.40;15.23;;;12.10;79.80;;;;;;4162943;28;20128;-84
2022/11/12 02:02:50;;;;;;;38.25;14.40;;;12.10;79.90;;;;;;4163636;28;20044;-84
2022/11/12 02:05:12;;;;;;;38.75;14.40;;;12.10;79.90;;;;;;4163745;28;20068;-84
2022/11/12 02:07:32;;;;;;;41.97;14.90;;;12.10;79.90;;;;;;4161804;28;20037;-83
2022/11/12 02:09:51;;;;;;;39.88;14.30;;;12.10;80.00;;;;;;4157899;28;20065;-84
2022/11/12 02:13:56;;;;;;;49.95;14.98;;;12.10;80.00;;;;;;4164065;28;20037;-83
2022/11/12 02:14:50;;;;;;;39.60;13.35;;;12.10;80.00;;;;;;4166801;28;20044;-83
2022/11/12 02:17:09;;;;;;;41.10;14.30;;;12.20;80.00;;;;;;4179387;28;20075;-84
2022/11/12 02:19:28;;;;;;;33.97;13.65;;;12.20;80.10;;;;;;4161007;28;20048;-83
2022/11/12 02:21:47;;;;;;;34.38;13.00;;;12.20;80.00;;;;;;4163469;28;20646;-84
2022/11/12 02:24:13;;;;;;;36.63;13.10;;;12.10;80.00;;;;;;4165970;28;20024;-84
2022/11/12 02:26:34;;;;;;;38.13;14.57;;;12.10;80.10;;;;;;4164501;28;20083;-84
2022/11/12 02:28:53;;;;;;;42.25;14.18;;;12.20;80.10;;;;;;4165314;28;20056;-84
2022/11/12 02:31:12;;;;;;;40.60;13.82;;;12.10;80.10;;;;;;4164778;28;20068;-84
2022/11/12 02:33:31;;;;;;;37.55;13.48;;;12.20;80.20;;;;;;4161594;28;20041;-83
2022/11/12 02:35:51;;;;;;;43.55;15.40;;;12.10;80.10;;;;;;4161411;28;20623;-83
2022/11/12 02:38:10;;;;;;;33.80;13.52;;;12.20;80.20;;;;;;4168877;28;20113;-84
2022/11/12 02:40:29;;;;;;;33.03;13.18;;;12.20;80.20;;;;;;4163432;28;20045;-83
2022/11/12 02:42:48;;;;;;;31.70;13.45;;;12.20;80.30;;;;;;4164147;28;20040;-84
2022/11/12 02:45:08;;;;;;;39.38;15.10;;;12.30;80.40;;;;;;4165003;28;20115;-83
2022/11/12 02:47:28;;;;;;;31.23;12.48;;;12.20;80.40;;;;;;4163491;28;20040;-84
2022/11/12 02:49:47;;;;;;;35.72;13.27;;;12.20;80.30;;;;;;4160323;28;20057;-84
2022/11/12 02:52:06;;;;;;;32.42;13.50;;;12.30;80.50;;;;;;4176909;28;20076;-83
2022/11/12 02:54:25;;;;;;;41.75;14.57;;;12.20;80.30;;;;;;4166930;28;20079;-83
2022/11/12 02:56:44;;;;;;;36.10;14.48;;;12.20;80.40;;;;;;4164086;28;20083;-83
2022/11/12 02:59:03;;;;;;;37.63;13.85;;;12.30;80.40;;;;;;4167506;28;20079;-83
2022/11/12 03:01:22;;;;;;;35.75;13.13;;;12.30;80.50;;;;;;4163697;28;20025;-82
2022/11/12 03:03:41;;;;;;;40.85;13.57;;;12.40;80.50;;;;;;4167524;28;20072;-83
2022/11/12 03:06:01;;;;;;;38.17;13.98;;;12.20;80.50;;;;;;4175157;28;20036;-82
2022/11/12 03:08:20;;;;;;;40.83;14.25;;;12.20;80.50;;;;;;4163549;28;20283;-83
2022/11/12 03:10:39;;;;;;;44.63;14.05;;;12.30;80.50;;;;;;4161577;28;20472;-82
2022/11/12 03:13:00;;;;;;;35.03;13.80;;;12.40;80.50;;;;;;4163648;28;20105;-83
2022/11/12 03:15:19;;;;;;;38.38;14.80;;;12.30;80.50;;;;;;4165423;28;20356;-83
2022/11/12 03:17:38;;;;;;;36.67;14.77;;;12.30;80.60;;;;;;4162084;28;20105;-83
2022/11/12 03:19:57;;;;;;;47.38;14.02;;;12.20;80.50;;;;;;4175110;28;20056;-82
2022/11/12 03:22:16;;;;;;;30.60;14.15;;;12.30;80.60;;;;;;4162141;28;20043;-83
2022/11/12 03:24:35;;;;;;;38.13;13.82;;;12.30;80.60;;;;;;4166975;28;20047;-82
2022/11/12 03:26:54;;;;;;;42.60;14.07;;;12.30;80.60;;;;;;4172796;28;20113;-83
2022/11/12 03:29:14;;;;;;;40.38;13.35;;;12.30;80.50;;;;;;4165555;28;20052;-83
2022/11/12 03:31:34;;;;;;;41.95;14.10;;;12.30;80.50;;;;;;4164127;28;20180;-82
2022/11/12 03:33:53;;;;;;;36.88;14.45;;;12.30;80.50;;;;;;4165271;28;20056;-83
2022/11/12 03:36:13;;;;;;;31.27;13.40;;;12.40;80.60;;;;;;4163780;28;20043;-83
2022/11/12 03:38:32;;;;;;;39.20;14.25;;;12.40;80.60;;;;;;4165481;28;20024;-82
2022/11/12 03:40:51;;;;;;;39.10;13.65;;;12.30;80.50;;;;;;4158257;28;20044;-83
2022/11/12 03:43:10;;;;;;;37.35;14.13;;;12.30;80.50;;;;;;4163911;28;20113;-82
2022/11/12 03:45:29;;;;;;;44.08;14.60;;;12.40;80.60;;;;;;4159541;28;20080;-83
2022/11/12 03:47:50;;;;;;;39.38;14.75;;;12.40;80.50;;;;;;4159115;28;20570;-83
2022/11/12 03:50:11;;;;;;;31.50;13.27;;;12.30;80.40;;;;;;4158322;28;20107;-84
2022/11/12 03:52:30;;;;;;;40.42;15.52;;;12.40;80.50;;;;;;4160891;28;20068;-83
2022/11/12 03:54:49;;;;;;;39.72;14.23;;;12.40;80.50;;;;;;4160485;28;20069;-83
2022/11/12 03:57:08;;;;;;;37.85;13.02;;;12.40;80.50;;;;;;4161912;28;20092;-83
2022/11/12 03:59:27;;;;;;;36.55;13.65;;;12.30;80.50;;;;;;4161132;28;20044;-83
2022/11/12 04:01:46;;;;;;;29.77;13.48;;;12.30;80.50;;;;;;4160291;28;20037;-83
2022/11/12 04:04:05;;;;;;;36.95;14.77;;;12.30;80.40;;;;;;4163028;28;20395;-83
2022/11/12 04:09:02;;;;;;;44.88;15.05;;;12.40;80.50;;;;;;4161409;28;20118;-82
2022/11/12 04:11:21;;;;;;;37.13;13.93;;;12.30;80.40;;;;;;4160638;28;20087;-83
2022/11/12 04:13:44;;;;;;;35.67;13.40;;;12.40;80.50;;;;;;4162142;28;20049;-84
2022/11/12 04:21:54;;;;;;;28.17;12.50;;;12.40;80.30;;;;;;4159989;28;20107;-83
2022/11/12 04:26:21;;;;;;;37.97;13.90;;;12.30;80.10;;;;;;4163686;28;20099;-83
2022/11/12 04:26:53;;;;;;;33.85;13.27;;;12.30;80.00;;;;;;4161362;28;20044;-83
2022/11/12 04:31:49;;;;;;;35.83;13.48;;;12.30;79.90;;;;;;4163773;28;20113;-83
2022/11/12 04:36:57;;;;;;;37.28;13.50;;;12.40;79.90;;;;;;4129033;28;20031;-84
2022/11/12 04:39:16;;;;;;;30.60;13.23;;;12.40;79.80;;;;;;4130306;28;20034;-84
2022/11/12 04:46:59;;;;;;;31.30;13.38;;;12.30;79.80;;;;;;4111794;28;20092;-83
2022/11/12 04:49:18;;;;;;;33.33;12.38;;;12.20;79.90;;;;;;4131286;28;20040;-83
2022/11/12 04:54:16;;;;;;;35.13;13.43;;;12.20;79.90;;;;;;4131641;28;20186;-83
2022/11/12 04:56:35;;;;;;;35.33;13.70;;;12.10;79.90;;;;;;4118023;28;20496;-85
2022/11/12 04:58:54;;;;;;;32.53;13.85;;;12.10;79.90;;;;;;4131649;28;20041;-83
2022/11/12 05:01:13;;;;;;;34.55;14.05;;;12.20;80.10;;;;;;4127762;28;20473;-83
2022/11/12 05:03:32;;;;;;;34.40;12.77;;;12.20;80.20;;;;;;4133239;28;20138;-83
2022/11/12 05:05:52;;;;;;;35.35;13.55;;;12.10;80.10;;;;;;4117831;28;20123;-84
2022/11/12 05:08:11;;;;;;;34.65;13.57;;;12.10;80.10;;;;;;4132152;28;20053;-84
2022/11/12 05:10:30;;;;;;;29.13;13.02;;;12.20;80.20;;;;;;4129382;28;20182;-83
2022/11/12 05:12:50;;;;;;;41.15;14.70;;;12.10;80.20;;;;;;4139180;28;20048;-83
2022/11/12 05:15:13;;;;;;;31.08;13.52;;;12.10;81.00;;;;;;4166814;28;20032;-83
2022/11/12 05:17:32;;;;;;;31.10;13.05;;;12.10;80.30;;;;;;4167626;28;20045;-84
2022/11/12 05:19:51;;;;;;;35.63;13.48;;;12.10;80.30;;;;;;4162776;28;20079;-84
2022/11/12 05:22:10;;;;;;;28.38;12.80;;;12.20;80.40;;;;;;4158890;28;20420;-83
2022/11/12 05:24:33;;;;;;;35.92;13.82;;;12.20;80.50;;;;;;4161235;28;20044;-84
2022/11/12 05:26:53;;;;;;;34.78;13.43;;;12.20;80.40;;;;;;4161411;28;20045;-85
2022/11/12 05:29:13;;;;;;;31.60;12.95;;;12.20;80.50;;;;;;4148374;28;20101;-83
2022/11/12 05:31:33;;;;;;;34.53;13.63;;;12.20;80.50;;;;;;4166536;28;20569;-83
2022/11/12 05:33:52;;;;;;;33.85;13.00;;;12.20;80.50;;;;;;4167920;28;20032;-83
2022/11/12 05:36:11;;;;;;;35.15;12.50;;;12.10;80.40;;;;;;4166356;28;20048;-81
2022/11/12 05:38:30;;;;;;;37.50;13.27;;;12.20;80.50;;;;;;4162414;28;20064;-83
2022/11/12 05:40:49;;;;;;;32.17;13.45;;;12.20;80.50;;;;;;4163456;28;20096;-83
2022/11/12 05:43:08;;;;;;;34.08;12.57;;;12.20;81.30;;;;;;4163803;28;20044;-83
2022/11/12 05:45:27;;;;;;;34.65;12.07;;;12.10;80.50;;;;;;4167137;28;20112;-83
2022/11/12 05:47:47;;;;;;;30.98;12.32;;;12.20;80.60;;;;;;4178753;28;20047;-84
2022/11/12 05:50:07;;;;;;;29.92;11.98;;;12.10;80.60;;;;;;4177067;28;20642;-83
2022/11/12 05:52:26;;;;;;;30.08;13.23;;;12.10;80.80;;;;;;4166006;28;20032;-83
2022/11/12 05:54:45;;;;;;;38.03;13.77;;;12.10;80.70;;;;;;4167220;28;20056;-84
2022/11/12 05:57:05;;;;;;;34.85;13.27;;;12.20;80.70;;;;;;4165038;28;20403;-84
2022/11/12 05:59:24;;;;;;;30.63;14.88;;;12.10;80.60;;;;;;4166357;28;20052;-83
2022/11/12 06:01:43;;;;;;;40.47;14.18;;;12.10;80.70;;;;;;4163327;28;20567;-84
2022/11/12 06:04:02;;;;;;;29.88;13.45;;;12.30;80.80;;;;;;4167991;28;20048;-84
2022/11/12 06:06:22;;;;;;;31.02;13.68;;;12.20;80.70;;;;;;4167050;28;20445;-84
2022/11/12 06:08:42;;;;;;;36.15;14.70;;;12.10;80.70;;;;;;4167683;28;20100;-82
2022/11/12 06:11:01;;;;;;;44.95;15.68;;;12.20;80.80;;;;;;4167432;28;20059;-84
2022/11/12 06:13:22;;;;;;;29.60;13.55;;;12.20;80.80;;;;;;4166809;28;20051;-83
2022/11/12 06:15:41;;;;;;;41.67;14.82;;;12.20;80.80;;;;;;4167808;28;20044;-83
2022/11/12 06:18:01;;;;;;;34.90;13.95;;;12.20;80.80;;;;;;4164685;28;20048;-84
2022/11/12 06:20:21;;;;;;;34.38;13.95;;;12.20;80.90;;;;;;4164494;28;20435;-84
2022/11/12 06:22:40;;;;;;;39.88;14.75;;;12.20;80.90;;;;;;4178414;28;20090;-83
2022/11/12 06:25:00;;;;;;;41.35;14.13;;;12.10;80.80;;;;;;4177144;28;20049;-84
2022/11/12 06:27:19;;;;;;;40.13;14.65;;;12.30;80.90;;;;;;4166264;28;20509;-83
2022/11/12 06:29:39;;;;;;;31.70;13.88;;;12.20;80.80;;;;;;4166404;28;20108;-84
2022/11/12 06:31:59;;;;;;;35.20;13.65;;;12.20;80.80;;;;;;4166202;28;20041;-83
2022/11/12 06:34:18;;;;;;;34.88;13.95;;;12.30;80.90;;;;;;4166367;28;20052;-83
2022/11/12 06:36:37;;;;;;;34.83;13.88;;;12.20;80.90;;;;;;4161833;28;20088;-84
2022/11/12 06:38:57;;;;;;;35.50;13.80;;;12.20;80.90;;;;;;4176702;28;20044;-84
2022/11/12 06:41:16;;;;;;;42.22;14.63;;;12.20;80.90;;;;;;4164198;28;20104;-83
2022/11/12 06:43:35;;;;;;;37.45;13.57;;;12.20;80.90;;;;;;4165406;28;20064;-84
2022/11/12 06:45:57;;;;;;;32.13;12.50;;;12.20;80.80;;;;;;4168239;28;20044;-83
2022/11/12 06:48:16;;;;;;;39.08;12.95;;;12.20;80.80;;;;;;4169174;28;20044;-84
2022/11/12 06:50:35;;;;;;;33.40;12.90;;;12.20;80.70;;;;;;4165022;28;20068;-83
2022/11/12 06:52:58;;;;;;;33.95;14.02;;;12.20;80.70;;;;;;4164397;28;20032;-83
2022/11/12 06:55:17;;;;;;;39.10;13.98;;;12.40;80.80;;;;;;4164811;28;20032;-83
2022/11/12 06:57:36;;;;;;;37.35;14.57;;;12.20;80.70;;;;;;4166456;28;20036;-84
2022/11/12 06:59:55;;;;;;;30.98;13.52;;;12.40;80.80;;;;;;4165287;28;20041;-83
2022/11/12 07:02:15;;;;;;;35.42;14.38;;;12.40;80.70;;;;;;4166562;28;20036;-84
2022/11/12 07:04:34;;;;;;;32.53;13.20;;;12.20;80.60;;;;;;4165373;28;20044;-85
2022/11/12 07:06:53;;;;;;;35.72;12.88;;;12.20;80.60;;;;;;4161434;28;20120;-84
2022/11/12 07:09:12;;;;;;;35.88;12.75;;;12.30;80.60;;;;;;4165484;28;20427;-84
2022/11/12 07:11:31;;;;;;;33.88;14.20;;;12.30;80.60;;;;;;4175628;28;20044;-84
2022/11/12 07:13:50;;;;;;;32.50;13.15;;;12.30;80.60;;;;;;4168360;28;20129;-85
2022/11/12 07:16:10;;;;;;;29.73;12.38;;;12.30;80.50;;;;;;4170384;28;20032;-85
2022/11/12 07:18:30;;;;;;;36.00;14.73;;;12.30;80.50;;;;;;4166304;28;20094;-86
2022/11/12 07:20:49;;;;;;;37.95;14.40;;;12.30;80.50;;;;;;4169507;28;20109;-85
2022/11/12 07:23:09;;;;;;;31.10;13.25;;;12.30;80.50;;;;;;4174820;28;20064;-85
2022/11/12 07:25:28;;;;;;;36.25;14.43;;;12.40;80.60;;;;;;4171944;28;20521;-85
2022/11/12 07:27:48;;;;;;;36.33;14.45;;;12.40;80.60;;;;;;4166761;28;20052;-85
2022/11/12 07:30:08;;;;;;;29.92;13.32;;;12.40;80.50;;;;;;4165228;28;20186;-85
2022/11/12 07:32:28;;;;;;;32.88;13.35;;;12.30;80.40;;;;;;4167848;28;20064;-86
2022/11/12 07:34:49;;;;;;;31.45;12.68;;;12.40;80.50;;;;;;4163471;28;20526;-84
2022/11/12 07:37:08;;;;;;;33.42;13.88;;;12.40;80.50;;;;;;4158116;28;20494;-85
2022/11/12 07:39:27;;;;;;;41.70;14.32;;;12.30;80.30;;;;;;4166767;28;20575;-85
2022/11/12 07:41:46;;;;;;;41.33;14.55;;;12.40;80.40;;;;;;4168274;28;20324;-85
2022/11/12 07:44:05;;;;;;;33.53;13.88;;;12.30;80.30;;;;;;4166337;28;20407;-85
2022/11/12 07:46:26;;;;;;;30.90;13.18;;;12.30;80.20;;;;;;4168140;28;20581;-85
2022/11/12 07:48:46;;;;;;;32.33;15.18;;;12.30;80.20;;;;;;4166277;28;20045;-85
2022/11/12 07:51:06;;;;;;;37.15;15.57;;;12.30;80.20;;;;;;4162772;28;20041;-84
2022/11/12 07:53:26;;;;;;;34.85;14.63;;;12.30;80.20;;;;;;4162935;28;20036;-85
2022/11/12 07:55:56;;;;;;;40.78;15.40;;;12.30;80.20;;;;;;4165126;28;20103;-85
2022/11/12 07:58:15;;;;;;;39.25;15.77;;;12.40;80.20;;;;;;4165891;28;20072;-84
2022/11/12 08:00:35;;;;;;;39.10;15.20;;;12.30;80.20;;;;;;4164102;28;20061;-84
2022/11/12 08:02:54;;;;;;;30.80;13.68;;;12.40;80.20;;;;;;4165185;28;20036;-84
2022/11/12 08:05:13;;;;;;;36.53;15.30;;;12.40;80.30;;;;;;4163907;28;20080;-83
2022/11/12 08:07:32;;;;;;;40.17;15.68;;;12.40;80.30;;;;;;4161083;28;20049;-84
2022/11/12 08:09:52;;;;;;;39.63;16.23;;;12.40;80.20;;;;;;4163332;28;20517;-86
2022/11/12 08:12:11;;;;;;;33.08;13.90;;;12.50;80.20;;;;;;4168174;28;20036;-85
2022/11/12 08:14:30;;;;;;;37.85;14.80;;;12.50;80.10;;;;;;4167826;28;20713;-84
2022/11/12 08:16:49;;;;;;;35.25;15.30;;;12.40;80.00;;;;;;4165175;28;20037;-84
2022/11/12 08:19:08;;;;;;;37.30;14.77;;;12.50;80.00;;;;;;4167196;28;20049;-84
2022/11/12 08:21:27;;;;;;;39.53;16.55;;;12.50;80.10;;;;;;4163253;28;20090;-84
2022/11/12 08:23:47;;;;;;;32.47;14.98;;;12.40;79.80;;;;;;4163835;28;20798;-85
2022/11/12 08:26:09;;;;;;;39.22;15.32;;;12.40;79.80;;;;;;4159848;28;20052;-84
2022/11/12 08:28:29;;;;;;;40.45;15.73;;;12.40;79.70;;;;;;4165486;28;20092;-83
2022/11/12 08:30:49;;;;;;;34.45;15.43;;;12.40;79.70;;;;;;4160534;28;20403;-84
2022/11/12 08:33:08;;;;;;;34.45;14.68;;;12.40;79.70;;;;;;4171714;28;20184;-85
2022/11/12 08:35:29;;;;;;;31.42;15.48;;;12.50;79.80;;;;;;4160842;28;20033;-84
2022/11/12 08:37:48;;;;;;;32.35;14.48;;;12.50;79.70;;;;;;4163085;28;20040;-84
2022/11/12 08:40:07;;;;;;;37.85;14.85;;;12.50;79.70;;;;;;4163224;28;20028;-86
2022/11/12 08:42:27;;;;;;;33.75;14.25;;;12.50;80.40;;;;;;4160679;28;20088;-83
2022/11/12 08:44:46;;;;;;;35.20;14.60;;;12.60;79.60;;;;;;4164614;28;20102;-85
2022/11/12 08:47:05;;;;;;;33.13;14.75;;;12.50;79.60;;;;;;4166003;28;20088;-84
2022/11/12 08:49:24;;;;;;;35.80;13.02;;;12.50;79.60;;;;;;4165516;28;20036;-82
2022/11/12 08:51:44;;;;;;;30.98;14.50;;;12.50;79.60;;;;;;4165496;28;20049;-83
2022/11/12 08:54:03;;;;;;;36.97;15.15;;;12.70;79.70;;;;;;4162806;28;20037;-84
2022/11/12 08:56:22;;;;;;;32.97;13.90;;;12.60;79.50;;;;;;4165333;28;20561;-83
2022/11/12 08:58:41;;;;;;;32.45;14.15;;;12.60;79.40;;;;;;4163543;28;20053;-83
2022/11/12 09:01:06;;;;;;;31.70;13.88;;;12.70;79.50;;;;;;4165201;28;20048;-83
2022/11/12 09:03:25;;;;;;;29.77;13.95;;;12.60;79.40;;;;;;4165327;28;20068;-84
2022/11/12 09:05:44;;;;;;;28.65;13.02;;;12.80;79.40;;;;;;4162867;28;20045;-84
2022/11/12 09:08:07;;;;;;;26.15;12.85;;;12.70;79.40;;;;;;4165652;28;20044;-83
2022/11/12 09:10:27;;;;;;;35.00;14.07;;;12.70;79.20;;;;;;4164327;28;20040;-84
2022/11/12 09:12:51;;;;;;;30.90;13.80;;;12.70;79.10;;;;;;4159571;28;20044;-84
2022/11/12 09:15:10;;;;;;;26.30;12.50;;;12.70;78.90;;;;;;4162761;28;20518;-84
2022/11/12 09:17:29;;;;;;;27.17;13.45;;;12.70;78.90;;;;;;4158017;28;20033;-85
2022/11/12 09:19:49;;;;;;;25.45;12.98;;;12.70;78.90;;;;;;4158167;28;20414;-85
2022/11/12 09:22:08;;;;;;;30.50;13.98;;;12.90;79.00;;;;;;4165693;28;20060;-85
2022/11/12 09:24:27;;;;;;;29.33;14.25;;;12.90;79.00;;;;;;4164436;28;20036;-85
2022/11/12 09:26:47;;;;;;;35.65;13.55;;;12.90;78.80;;;;;;4170753;28;20080;-84
2022/11/12 09:29:06;;;;;;;28.52;12.98;;;12.80;78.60;;;;;;4168622;28;20072;-84
2022/11/12 09:31:25;;;;;;;27.67;13.38;;;12.80;78.40;;;;;;4166022;28;20596;-84
2022/11/12 09:33:44;;;;;;;29.10;13.00;;;12.80;78.30;;;;;;4163015;28;20528;-86
2022/11/12 09:36:05;;;;;;;28.58;13.48;;;13.00;78.30;;;;;;4163504;28;20036;-83
2022/11/12 09:38:24;;;;;;;33.30;14.02;;;12.90;78.20;;;;;;4167831;28;20032;-85
2022/11/12 09:40:49;;;;;;;28.60;12.68;;;13.00;78.20;;;;;;4164511;28;20036;-84
2022/11/12 09:43:26;;;;;;;30.17;13.45;;;12.90;77.90;;;;;;4163578;28;20041;-84
2022/11/12 09:45:46;;;;;;;25.45;12.90;;;12.90;77.90;;;;;;4163454;28;20040;-85
2022/11/12 09:48:11;;;;;;;26.00;12.30;;;12.90;77.90;;;;;;4165923;28;20028;-84
2022/11/12 09:50:37;;;;;;;;;;;12.90;77.80;;;;;;4164074;28;20091;-84
2022/11/12 09:53:06;;;;;;;25.13;11.32;;;12.90;77.50;;;;;;4162086;28;19928;-84
2022/11/12 09:55:32;;;;;;;26.90;11.65;;;13.10;77.80;;;;;;4162868;28;20048;-85
2022/11/12 09:57:51;;;;;;;24.60;11.95;;;13.00;77.70;;;;;;4165543;28;21450;-85
2022/11/12 10:00:18;;;;;;;26.40;12.10;;;13.00;77.70;;;;;;4162888;28;20025;-84
2022/11/12 10:03:12;;;;;;;26.88;12.05;;;13.00;77.60;;;;;;4162744;28;20126;-84
2022/11/12 10:06:05;;;;;;;23.90;11.57;;;13.00;77.60;;;;;;4162956;28;20041;-85
2022/11/12 10:08:37;;;;;;;23.13;10.88;;;13.00;77.70;;;;;;4164283;28;20565;-84
2022/11/12 10:11:25;;;;;;;23.55;10.68;;;13.00;77.70;;;;;;4161945;28;20072;-84
2022/11/12 10:14:02;;;;;;;22.30;11.27;;;13.10;77.60;;;;;;4159103;28;20041;-84
2022/11/12 10:16:42;;;;;;;24.92;11.15;;;13.10;77.70;;;;;;4165562;28;20104;-85
2022/11/12 10:19:43;;;;;;;25.17;11.05;;;13.20;77.60;;;;;;4165182;28;20075;-84
2022/11/12 10:22:27;;;;;;;30.08;12.23;;;13.10;77.40;;;;;;4162563;28;20044;-84
2022/11/12 10:24:47;;;;;;;28.83;10.15;;;13.10;77.40;;;;;;4164647;28;20087;-85
2022/11/12 10:27:19;;;;;;;26.85;11.82;;;13.20;77.50;;;;;;4161943;28;20044;-85
2022/11/12 10:29:46;;;;;;;24.20;11.77;;;13.10;77.20;;;;;;4161959;28;20534;-84
2022/11/12 10:32:13;;;;;;;21.52;10.90;;;13.20;77.20;;;;;;4159950;28;20084;-82
2022/11/12 10:34:34;;;;;;;23.75;10.82;;;13.20;77.10;;;;;;4164363;28;20534;-83
2022/11/12 10:37:04;;;;;;;23.33;11.95;;;13.30;77.20;;;;;;4163194;28;20044;-83
2022/11/12 10:39:34;;;;;;;23.48;10.93;;;13.20;76.90;;;;;;4161673;28;20419;-83
2022/11/12 10:42:11;;;;;;;26.42;11.73;;;13.20;76.80;;;;;;4164645;28;20400;-83
2022/11/12 10:44:32;;;;;;;24.17;11.63;;;13.20;76.60;;;;;;4160175;28;20388;-83
2022/11/12 10:47:15;;;;;;;22.63;11.25;;;13.20;76.70;;;;;;4160307;28;20030;-83
2022/11/12 10:49:35;;;;;;;19.02;10.43;;;13.20;76.50;;;;;;4160301;28;20045;-84
2022/11/12 10:51:57;;;;;;;20.85;10.70;;;13.20;76.60;;;;;;4161758;28;20797;-85
2022/11/12 10:54:36;;;;;;;22.92;11.00;;;13.20;76.60;;;;;;4161988;28;20379;-88
2022/11/12 10:57:17;;;;;;;22.33;9.85;;;13.20;76.50;;;;;;4177010;28;20049;-86
2022/11/12 10:59:38;;;;;;;19.90;9.02;;;13.20;76.70;;;;;;4164619;28;20406;-85
2022/11/12 11:02:00;;;;;;;25.83;10.25;;;13.20;76.70;;;;;;4165894;28;20569;-86
2022/11/12 11:04:36;;;;;;;26.23;10.90;;;13.30;76.70;;;;;;4164149;28;20439;-85
2022/11/12 11:07:23;;;;;;;17.77;9.60;;;13.30;76.50;;;;;;4162927;28;20060;-85
2022/11/12 11:09:57;;;;;;;22.88;10.02;;;13.30;76.50;;;;;;4163447;28;20518;-86
2022/11/12 11:12:28;;;;;;;22.42;10.82;;;13.30;76.40;;;;;;4160894;28;20112;-86
2022/11/12 11:15:10;;;;;;;19.17;10.18;;;13.30;76.40;;;;;;4156976;28;20071;-85
2022/11/12 11:17:29;;;;;;;20.05;10.23;;;13.30;76.20;;;;;;4163133;28;20029;-85
2022/11/12 11:19:48;;;;;;;20.40;11.00;;;13.30;76.20;;;;;;4160193;28;20048;-85
2022/11/12 11:22:31;;;;;;;24.95;10.85;;;13.40;76.20;;;;;;4157634;28;20045;-85
2022/11/12 11:25:26;;;;;;;26.10;11.50;;;13.30;75.80;;;;;;4156286;28;20043;-85
2022/11/12 11:28:02;;;;;;;21.10;11.38;;;13.30;75.60;;;;;;4159040;28;20060;-85
2022/11/12 11:30:22;;;;;;;23.35;11.85;;;13.30;75.60;;;;;;4160915;28;20529;-85
2022/11/12 11:32:49;;;;;;;21.50;12.20;;;13.30;75.70;;;;;;4162429;28;20043;-85
2022/11/12 11:35:26;;;;;;;25.67;12.60;;;13.30;75.60;;;;;;4163799;28;20052;-85
2022/11/12 11:38:16;;;;;;;21.50;11.35;;;13.30;75.50;;;;;;4170624;28;20108;-85
2022/11/12 11:40:41;;;;;;;22.75;11.38;;;13.20;75.20;;;;;;4171047;28;20033;-85
2022/11/12 11:43:47;;;;;;;22.52;11.73;;;13.30;75.40;;;;;;4158443;28;20088;-86
2022/11/12 11:46:16;;;;;;;18.88;10.90;;;13.20;75.10;;;;;;4160105;28;20044;-86
2022/11/12 11:49:06;;;;;;;21.55;11.50;;;13.20;75.20;;;;;;4156378;28;20442;-84
2022/11/12 11:51:47;;;;;;;21.15;11.88;;;13.20;75.30;;;;;;4159603;28;20041;-85
2022/11/12 11:54:19;;;;;;;25.38;12.20;;;13.20;75.20;;;;;;4158757;28;20040;-85
2022/11/12 11:56:42;;;;;;;23.55;11.57;;;13.30;75.20;;;;;;4157587;28;20071;-85
2022/11/12 11:59:23;;;;;;;24.83;12.60;;;13.10;75.00;;;;;;4161232;28;20044;-86
2022/11/12 12:02:11;;;;;;;25.48;12.00;;;13.10;74.70;;;;;;4160963;28;20062;-86
2022/11/12 12:04:45;;;;;;;20.90;11.40;;;13.20;74.90;;;;;;4163884;28;20072;-85
2022/11/12 12:07:16;;;;;;;23.23;11.25;;;13.10;74.90;;;;;;4160276;28;20044;-85
2022/11/12 12:09:47;;;;;;;24.77;10.52;;;13.10;75.00;;;;;;4159208;28;20100;-85
2022/11/12 12:12:15;;;;;;;23.17;11.80;;;13.10;75.10;;;;;;4161477;28;20120;-85
2022/11/12 12:15:08;;;;;;;26.92;12.05;;;13.10;75.10;;;;;;4159157;28;20032;-85
2022/11/12 12:17:27;;;;;;;23.23;11.13;;;13.10;75.10;;;;;;4160523;28;20075;-84
2022/11/12 12:19:58;;;;;;;22.25;10.77;;;13.10;75.10;;;;;;4161717;28;20076;-85
2022/11/12 12:22:25;;;;;;;19.48;10.10;;;13.10;75.10;;;;;;4161752;28;20033;-85
2022/11/12 12:24:56;;;;;;;23.73;11.48;;;13.00;75.10;;;;;;4157608;28;20493;-85
2022/11/12 12:27:31;;;;;;;26.00;11.45;;;13.20;75.20;;;;;;4153842;28;20455;-85